sensor_id;sensor_type;location;lat;lon;timestamp;temperature;humidity
53053;DHT22;38934;52.690;6.184;2022-10-23T00:01:31;10.70;99.90
53053;DHT22;38934;52.690;6.184;2022-10-23T00:03:58;10.70;99.90
53053;DHT22;38934;52.690;6.184;2022-10-23T00:06:24;10.70;99.90
53053;DHT22;38934;52.690;6.184;2022-10-23T00:08:50;10.70;99.90
53053;DHT22;38934;52.690;6.184;2022-10-23T00:11:17;10.70;99.90
53053;DHT22;38934;52.690;6.184;2022-10-23T00:13:44;10.70;99.90
53053;DHT22;38934;52.690;6.184;2022-10-23T00:16:09;10.70;99.90
53053;DHT22;38934;52.690;6.184;2022-10-23T00:18:35;10.70;99.90
53053;DHT22;38934;52.690;6.184;2022-10-23T00:21:01;10.70;99.90
53053;DHT22;38934;52.690;6.184;2022-10-23T00:23:29;10.70;99.90
53053;DHT22;38934;52.690;6.184;2022-10-23T00:25:56;10.60;99.90
53053;DHT22;38934;52.690;6.184;2022-10-23T00:28:23;10.60;99.90
53053;DHT22;38934;52.690;6.184;2022-10-23T00:30:49;10.60;99.90
53053;DHT22;38934;52.690;6.184;2022-10-23T00:33:14;10.60;99.90
53053;DHT22;38934;52.690;6.184;2022-10-23T00:35:40;10.60;99.90
53053;DHT22;38934;52.690;6.184;2022-10-23T00:38:06;10.60;99.90
53053;DHT22;38934;52.690;6.184;2022-10-23T00:40:32;10.60;99.90
53053;DHT22;38934;52.690;6.184;2022-10-23T00:42:59;10.50;99.90
53053;DHT22;38934;52.690;6.184;2022-10-23T00:45:25;10.50;99.90
53053;DHT22;38934;52.690;6.184;2022-10-23T00:47:51;10.50;99.90
53053;DHT22;38934;52.690;6.184;2022-10-23T00:50:17;10.50;99.90
53053;DHT22;38934;52.690;6.184;2022-10-23T00:52:47;10.50;99.90
53053;DHT22;38934;52.690;6.184;2022-10-23T00:55:13;10.50;99.90
53053;DHT22;38934;52.690;6.184;2022-10-23T00:57:47;10.40;99.90
53053;DHT22;38934;52.690;6.184;2022-10-23T01:00:58;10.40;99.90
53053;DHT22;38934;52.690;6.184;2022-10-23T01:02:58;10.40;99.90
53053;DHT22;38934;52.690;6.184;2022-10-23T01:05:29;10.40;99.90
53053;DHT22;38934;52.690;6.184;2022-10-23T01:08:08;10.40;99.90
53053;DHT22;38934;52.690;6.184;2022-10-23T01:10:44;10.30;99.90
53053;DHT22;38934;52.690;6.184;2022-10-23T01:13:54;10.30;99.90
53053;DHT22;38934;52.690;6.184;2022-10-23T01:16:04;10.30;99.90
53053;DHT22;38934;52.690;6.184;2022-10-23T01:18:43;10.30;99.90
53053;DHT22;38934;52.690;6.184;2022-10-23T01:21:16;10.20;99.90
53053;DHT22;38934;52.690;6.184;2022-10-23T01:26:23;10.20;99.90
53053;DHT22;38934;52.690;6.184;2022-10-23T01:29:26;10.30;99.90
53053;DHT22;38934;52.690;6.184;2022-10-23T01:31:49;10.20;99.90
53053;DHT22;38934;52.690;6.184;2022-10-23T01:34:22;10.20;99.90
53053;DHT22;38934;52.690;6.184;2022-10-23T01:36:49;10.20;99.90
53053;DHT22;38934;52.690;6.184;2022-10-23T01:39:20;10.20;99.90
53053;DHT22;38934;52.690;6.184;2022-10-23T01:41:51;10.20;99.90
53053;DHT22;38934;52.690;6.184;2022-10-23T01:44:25;10.20;99.90
53053;DHT22;38934;52.690;6.184;2022-10-23T01:46:52;10.20;99.90
53053;DHT22;38934;52.690;6.184;2022-10-23T01:49:19;10.20;99.90
53053;DHT22;38934;52.690;6.184;2022-10-23T01:51:46;10.30;99.90
53053;DHT22;38934;52.690;6.184;2022-10-23T01:54:14;10.20;99.90
53053;DHT22;38934;52.690;6.184;2022-10-23T01:56:42;10.20;99.90
53053;DHT22;38934;52.690;6.184;2022-10-23T01:59:09;10.20;99.90
53053;DHT22;38934;52.690;6.184;2022-10-23T02:01:36;10.20;99.90
53053;DHT22;38934;52.690;6.184;2022-10-23T02:04:03;10.40;99.90
53053;DHT22;38934;52.690;6.184;2022-10-23T02:06:30;10.10;99.90
53053;DHT22;38934;52.690;6.184;2022-10-23T02:08:55;10.90;99.90
53053;DHT22;38934;52.690;6.184;2022-10-23T02:11:22;10.10;99.90
53053;DHT22;38934;52.690;6.184;2022-10-23T02:22:02;10.20;99.90
53053;DHT22;38934;52.690;6.184;2022-10-23T02:24:31;10.10;99.90
53053;DHT22;38934;52.690;6.184;2022-10-23T02:27:01;10.20;99.90
53053;DHT22;38934;52.690;6.184;2022-10-23T02:30:02;10.10;99.90
53053;DHT22;38934;52.690;6.184;2022-10-23T02:32:20;10.10;99.90
53053;DHT22;38934;52.690;6.184;2022-10-23T02:34:46;10.10;99.90
53053;DHT22;38934;52.690;6.184;2022-10-23T02:37:13;10.10;99.90
53053;DHT22;38934;52.690;6.184;2022-10-23T02:39:39;10.20;99.90
53053;DHT22;38934;52.690;6.184;2022-10-23T02:42:48;10.20;99.90
53053;DHT22;38934;52.690;6.184;2022-10-23T02:44:54;10.20;99.90
53053;DHT22;38934;52.690;6.184;2022-10-23T03:00:34;10.30;99.90
53053;DHT22;38934;52.690;6.184;2022-10-23T03:03:05;10.30;99.90
53053;DHT22;38934;52.690;6.184;2022-10-23T03:05:35;10.30;99.90
53053;DHT22;38934;52.690;6.184;2022-10-23T03:08:06;10.30;99.90
53053;DHT22;38934;52.690;6.184;2022-10-23T03:10:32;10.30;99.90
53053;DHT22;38934;52.690;6.184;2022-10-23T03:12:58;10.30;99.90
53053;DHT22;38934;52.690;6.184;2022-10-23T03:15:24;10.30;99.90
53053;DHT22;38934;52.690;6.184;2022-10-23T03:17:51;10.30;99.90
53053;DHT22;38934;52.690;6.184;2022-10-23T03:20:16;10.40;99.90
53053;DHT22;38934;52.690;6.184;2022-10-23T03:22:42;10.40;99.90
53053;DHT22;38934;52.690;6.184;2022-10-23T03:25:08;10.30;99.90
53053;DHT22;38934;52.690;6.184;2022-10-23T03:27:34;10.40;99.90
53053;DHT22;38934;52.690;6.184;2022-10-23T03:30:00;10.40;99.90
53053;DHT22;38934;52.690;6.184;2022-10-23T03:32:26;10.70;99.90
53053;DHT22;38934;52.690;6.184;2022-10-23T03:34:51;10.40;99.90
53053;DHT22;38934;52.690;6.184;2022-10-23T03:37:17;10.40;99.90
53053;DHT22;38934;52.690;6.184;2022-10-23T03:39:43;10.30;99.90
53053;DHT22;38934;52.690;6.184;2022-10-23T03:42:08;10.30;99.90
53053;DHT22;38934;52.690;6.184;2022-10-23T03:44:34;10.30;99.90
53053;DHT22;38934;52.690;6.184;2022-10-23T03:47:02;10.30;99.90
53053;DHT22;38934;52.690;6.184;2022-10-23T03:49:28;10.30;99.90
53053;DHT22;38934;52.690;6.184;2022-10-23T03:51:53;10.30;99.90
53053;DHT22;38934;52.690;6.184;2022-10-23T03:54:20;10.30;99.90
53053;DHT22;38934;52.690;6.184;2022-10-23T03:56:46;10.40;99.90
53053;DHT22;38934;52.690;6.184;2022-10-23T03:59:12;10.30;99.90
53053;DHT22;38934;52.690;6.184;2022-10-23T04:01:37;10.80;99.90
53053;DHT22;38934;52.690;6.184;2022-10-23T04:04:03;10.30;99.90
53053;DHT22;38934;52.690;6.184;2022-10-23T04:06:28;10.30;99.90
53053;DHT22;38934;52.690;6.184;2022-10-23T04:08:54;10.50;99.90
53053;DHT22;38934;52.690;6.184;2022-10-23T04:11:20;10.30;99.90
53053;DHT22;38934;52.690;6.184;2022-10-23T04:13:45;10.20;99.90
53053;DHT22;38934;52.690;6.184;2022-10-23T04:16:11;10.20;99.90
53053;DHT22;38934;52.690;6.184;2022-10-23T04:18:41;10.10;99.90
53053;DHT22;38934;52.690;6.184;2022-10-23T04:21:06;10.10;99.90
53053;DHT22;38934;52.690;6.184;2022-10-23T04:23:32;10.10;99.90
53053;DHT22;38934;52.690;6.184;2022-10-23T04:25:58;10.10;99.90
53053;DHT22;38934;52.690;6.184;2022-10-23T04:28:23;10.10;99.90
53053;DHT22;38934;52.690;6.184;2022-10-23T04:30:49;10.10;99.90
53053;DHT22;38934;52.690;6.184;2022-10-23T04:33:15;10.10;99.90
53053;DHT22;38934;52.690;6.184;2022-10-23T04:35:41;10.10;99.90
53053;DHT22;38934;52.690;6.184;2022-10-23T04:38:06;10.10;99.90
53053;DHT22;38934;52.690;6.184;2022-10-23T04:40:32;10.10;99.90
53053;DHT22;38934;52.690;6.184;2022-10-23T04:42:57;10.10;99.90
53053;DHT22;38934;52.690;6.184;2022-10-23T04:45:23;10.20;99.90
53053;DHT22;38934;52.690;6.184;2022-10-23T04:47:49;10.10;99.90
53053;DHT22;38934;52.690;6.184;2022-10-23T04:50:15;10.10;99.90
53053;DHT22;38934;52.690;6.184;2022-10-23T04:52:41;10.10;99.90
53053;DHT22;38934;52.690;6.184;2022-10-23T04:55:07;10.10;99.90
53053;DHT22;38934;52.690;6.184;2022-10-23T04:57:33;10.00;99.90
53053;DHT22;38934;52.690;6.184;2022-10-23T04:59:58;10.10;99.90
53053;DHT22;38934;52.690;6.184;2022-10-23T05:02:24;10.00;99.90
53053;DHT22;38934;52.690;6.184;2022-10-23T05:04:50;10.00;99.90
53053;DHT22;38934;52.690;6.184;2022-10-23T05:07:15;10.00;99.90
53053;DHT22;38934;52.690;6.184;2022-10-23T05:09:42;10.00;99.90
53053;DHT22;38934;52.690;6.184;2022-10-23T05:12:07;10.00;99.90
53053;DHT22;38934;52.690;6.184;2022-10-23T05:14:33;10.00;99.90
53053;DHT22;38934;52.690;6.184;2022-10-23T05:16:59;10.00;99.90
53053;DHT22;38934;52.690;6.184;2022-10-23T05:19:30;10.00;99.90
53053;DHT22;38934;52.690;6.184;2022-10-23T05:21:57;10.00;99.90
53053;DHT22;38934;52.690;6.184;2022-10-23T05:24:23;10.10;99.90
53053;DHT22;38934;52.690;6.184;2022-10-23T05:26:49;10.00;99.90
53053;DHT22;38934;52.690;6.184;2022-10-23T05:29:17;10.00;99.90
53053;DHT22;38934;52.690;6.184;2022-10-23T05:31:43;10.00;99.90
53053;DHT22;38934;52.690;6.184;2022-10-23T05:34:12;10.10;99.90
53053;DHT22;38934;52.690;6.184;2022-10-23T05:36:39;10.10;99.90
53053;DHT22;38934;52.690;6.184;2022-10-23T05:39:05;10.30;99.90
53053;DHT22;38934;52.690;6.184;2022-10-23T05:41:30;10.10;99.90
53053;DHT22;38934;52.690;6.184;2022-10-23T05:43:56;10.10;99.90
53053;DHT22;38934;52.690;6.184;2022-10-23T05:46:22;10.90;99.90
53053;DHT22;38934;52.690;6.184;2022-10-23T05:48:51;10.10;99.90
53053;DHT22;38934;52.690;6.184;2022-10-23T05:51:17;10.10;99.90
53053;DHT22;38934;52.690;6.184;2022-10-23T05:53:49;10.20;99.90
53053;DHT22;38934;52.690;6.184;2022-10-23T05:56:15;10.80;99.90
53053;DHT22;38934;52.690;6.184;2022-10-23T05:58:41;10.20;99.90
53053;DHT22;38934;52.690;6.184;2022-10-23T06:01:07;10.20;99.90
53053;DHT22;38934;52.690;6.184;2022-10-23T06:03:34;10.20;99.90
53053;DHT22;38934;52.690;6.184;2022-10-23T06:05:59;10.20;99.90
53053;DHT22;38934;52.690;6.184;2022-10-23T06:08:25;10.20;99.90
53053;DHT22;38934;52.690;6.184;2022-10-23T06:10:50;10.30;99.90
53053;DHT22;38934;52.690;6.184;2022-10-23T06:13:16;10.30;99.90
53053;DHT22;38934;52.690;6.184;2022-10-23T06:15:42;10.40;99.90
53053;DHT22;38934;52.690;6.184;2022-10-23T06:18:08;10.30;99.90
53053;DHT22;38934;52.690;6.184;2022-10-23T06:20:34;10.30;99.90
53053;DHT22;38934;52.690;6.184;2022-10-23T06:23:02;10.40;99.90
53053;DHT22;38934;52.690;6.184;2022-10-23T06:25:27;10.40;99.90
53053;DHT22;38934;52.690;6.184;2022-10-23T06:27:53;10.40;99.90
53053;DHT22;38934;52.690;6.184;2022-10-23T06:30:31;10.40;99.90
53053;DHT22;38934;52.690;6.184;2022-10-23T06:32:56;10.40;99.90
53053;DHT22;38934;52.690;6.184;2022-10-23T06:35:22;10.50;99.90
53053;DHT22;38934;52.690;6.184;2022-10-23T06:37:48;10.40;99.90
53053;DHT22;38934;52.690;6.184;2022-10-23T06:40:13;10.50;99.90
53053;DHT22;38934;52.690;6.184;2022-10-23T06:42:41;10.50;99.90
53053;DHT22;38934;52.690;6.184;2022-10-23T06:45:07;10.60;99.90
53053;DHT22;38934;52.690;6.184;2022-10-23T06:47:32;10.60;99.90
53053;DHT22;38934;52.690;6.184;2022-10-23T06:49:59;10.60;99.90
53053;DHT22;38934;52.690;6.184;2022-10-23T06:52:24;10.70;99.90
53053;DHT22;38934;52.690;6.184;2022-10-23T06:54:50;10.70;99.90
53053;DHT22;38934;52.690;6.184;2022-10-23T06:57:16;10.70;99.90
53053;DHT22;38934;52.690;6.184;2022-10-23T06:59:41;10.70;99.90
53053;DHT22;38934;52.690;6.184;2022-10-23T07:02:07;10.80;99.90
53053;DHT22;38934;52.690;6.184;2022-10-23T07:04:33;10.80;99.90
53053;DHT22;38934;52.690;6.184;2022-10-23T07:06:59;10.80;99.90
53053;DHT22;38934;52.690;6.184;2022-10-23T07:09:25;10.90;99.90
53053;DHT22;38934;52.690;6.184;2022-10-23T07:11:51;11.00;99.90
53053;DHT22;38934;52.690;6.184;2022-10-23T07:14:17;10.90;99.90
53053;DHT22;38934;52.690;6.184;2022-10-23T07:16:42;11.00;99.90
53053;DHT22;38934;52.690;6.184;2022-10-23T07:19:09;11.00;99.90
53053;DHT22;38934;52.690;6.184;2022-10-23T07:21:34;11.00;99.90
53053;DHT22;38934;52.690;6.184;2022-10-23T07:24:00;11.00;99.90
53053;DHT22;38934;52.690;6.184;2022-10-23T07:26:27;11.10;99.90
53053;DHT22;38934;52.690;6.184;2022-10-23T07:28:53;11.10;99.90
53053;DHT22;38934;52.690;6.184;2022-10-23T07:31:23;11.20;99.90
53053;DHT22;38934;52.690;6.184;2022-10-23T07:33:49;11.20;99.90
53053;DHT22;38934;52.690;6.184;2022-10-23T07:36:15;11.20;99.90
53053;DHT22;38934;52.690;6.184;2022-10-23T07:38:41;11.30;99.90
53053;DHT22;38934;52.690;6.184;2022-10-23T07:41:07;11.30;99.90
53053;DHT22;38934;52.690;6.184;2022-10-23T07:43:33;11.30;99.90
53053;DHT22;38934;52.690;6.184;2022-10-23T07:45:59;11.30;99.90
53053;DHT22;38934;52.690;6.184;2022-10-23T07:48:25;11.90;99.90
53053;DHT22;38934;52.690;6.184;2022-10-23T07:50:56;11.50;99.90
53053;DHT22;38934;52.690;6.184;2022-10-23T07:53:22;11.50;99.90
53053;DHT22;38934;52.690;6.184;2022-10-23T07:55:55;11.60;99.90
53053;DHT22;38934;52.690;6.184;2022-10-23T07:58:21;11.60;99.90
53053;DHT22;38934;52.690;6.184;2022-10-23T08:00:48;11.70;99.90
53053;DHT22;38934;52.690;6.184;2022-10-23T08:03:17;11.70;99.90
53053;DHT22;38934;52.690;6.184;2022-10-23T08:05:42;11.70;99.90
53053;DHT22;38934;52.690;6.184;2022-10-23T08:08:08;11.70;99.90
53053;DHT22;38934;52.690;6.184;2022-10-23T08:10:33;11.80;99.90
53053;DHT22;38934;52.690;6.184;2022-10-23T08:12:59;11.90;99.90
53053;DHT22;38934;52.690;6.184;2022-10-23T08:15:25;11.90;99.90
53053;DHT22;38934;52.690;6.184;2022-10-23T08:17:50;12.00;99.90
53053;DHT22;38934;52.690;6.184;2022-10-23T08:20:16;12.00;99.90
53053;DHT22;38934;52.690;6.184;2022-10-23T08:22:42;12.10;99.90
53053;DHT22;38934;52.690;6.184;2022-10-23T08:25:07;12.30;99.90
53053;DHT22;38934;52.690;6.184;2022-10-23T08:27:35;12.20;99.90
53053;DHT22;38934;52.690;6.184;2022-10-23T08:30:01;12.30;99.90
53053;DHT22;38934;52.690;6.184;2022-10-23T08:32:30;12.40;99.90
53053;DHT22;38934;52.690;6.184;2022-10-23T08:34:56;12.40;99.90
53053;DHT22;38934;52.690;6.184;2022-10-23T08:37:23;12.50;99.90
53053;DHT22;38934;52.690;6.184;2022-10-23T08:39:49;12.50;99.90
53053;DHT22;38934;52.690;6.184;2022-10-23T08:42:19;12.60;99.90
53053;DHT22;38934;52.690;6.184;2022-10-23T08:44:47;12.70;99.90
53053;DHT22;38934;52.690;6.184;2022-10-23T08:47:18;12.70;99.90
53053;DHT22;38934;52.690;6.184;2022-10-23T08:49:52;12.80;99.90
53053;DHT22;38934;52.690;6.184;2022-10-23T08:52:38;12.90;99.90
53053;DHT22;38934;52.690;6.184;2022-10-23T08:57:42;13.00;99.90
53053;DHT22;38934;52.690;6.184;2022-10-23T09:00:13;13.50;99.90
53053;DHT22;38934;52.690;6.184;2022-10-23T09:02:41;13.20;99.90
53053;DHT22;38934;52.690;6.184;2022-10-23T09:05:52;13.80;99.90
53053;DHT22;38934;52.690;6.184;2022-10-23T09:15:46;13.40;99.90
53053;DHT22;38934;52.690;6.184;2022-10-23T09:20:49;13.50;99.90
53053;DHT22;38934;52.690;6.184;2022-10-23T09:23:18;14.10;99.90
53053;DHT22;38934;52.690;6.184;2022-10-23T09:25:44;13.60;99.90
53053;DHT22;38934;52.690;6.184;2022-10-23T09:28:22;13.70;99.90
53053;DHT22;38934;52.690;6.184;2022-10-23T09:30:48;13.70;99.90
53053;DHT22;38934;52.690;6.184;2022-10-23T09:33:16;14.30;99.90
53053;DHT22;38934;52.690;6.184;2022-10-23T09:43:43;13.90;99.90
53053;DHT22;38934;52.690;6.184;2022-10-23T09:46:09;13.90;99.90
53053;DHT22;38934;52.690;6.184;2022-10-23T09:48:37;14.00;99.90
53053;DHT22;38934;52.690;6.184;2022-10-23T09:51:11;14.00;99.90
53053;DHT22;38934;52.690;6.184;2022-10-23T09:53:49;14.00;99.90
53053;DHT22;38934;52.690;6.184;2022-10-23T09:56:25;14.10;99.90
53053;DHT22;38934;52.690;6.184;2022-10-23T10:01:24;14.10;99.90
53053;DHT22;38934;52.690;6.184;2022-10-23T10:03:50;14.20;99.90
53053;DHT22;38934;52.690;6.184;2022-10-23T10:06:32;14.30;99.90
53053;DHT22;38934;52.690;6.184;2022-10-23T10:08:58;14.30;99.90
53053;DHT22;38934;52.690;6.184;2022-10-23T10:37:46;14.50;99.90
53053;DHT22;38934;52.690;6.184;2022-10-23T10:42:48;14.60;99.90
53053;DHT22;38934;52.690;6.184;2022-10-23T10:45:30;14.50;99.90
53053;DHT22;38934;52.690;6.184;2022-10-23T10:48:00;14.50;99.90
53053;DHT22;38934;52.690;6.184;2022-10-23T10:50:30;14.50;99.90
53053;DHT22;38934;52.690;6.184;2022-10-23T10:55:40;14.50;99.90
53053;DHT22;38934;52.690;6.184;2022-10-23T11:00:55;14.50;99.90
53053;DHT22;38934;52.690;6.184;2022-10-23T11:08:37;14.50;99.90
53053;DHT22;38934;52.690;6.184;2022-10-23T11:11:05;14.40;99.90
53053;DHT22;38934;52.690;6.184;2022-10-23T11:13:36;14.50;99.90
53053;DHT22;38934;52.690;6.184;2022-10-23T11:16:04;14.50;99.90
53053;DHT22;38934;52.690;6.184;2022-10-23T11:18:33;14.50;99.90
53053;DHT22;38934;52.690;6.184;2022-10-23T11:21:04;14.50;99.90
53053;DHT22;38934;52.690;6.184;2022-10-23T11:23:38;14.60;99.90
53053;DHT22;38934;52.690;6.184;2022-10-23T11:26:12;14.60;99.90
53053;DHT22;38934;52.690;6.184;2022-10-23T11:36:31;14.80;99.90
53053;DHT22;38934;52.690;6.184;2022-10-23T11:39:06;14.80;99.90
53053;DHT22;38934;52.690;6.184;2022-10-23T11:41:45;14.80;99.90
53053;DHT22;38934;52.690;6.184;2022-10-23T11:44:23;15.00;99.90
53053;DHT22;38934;52.690;6.184;2022-10-23T11:46:57;14.80;99.90
53053;DHT22;38934;52.690;6.184;2022-10-23T11:49:23;14.80;99.90
53053;DHT22;38934;52.690;6.184;2022-10-23T11:51:58;14.90;99.90
53053;DHT22;38934;52.690;6.184;2022-10-23T11:54:26;14.80;99.90
53053;DHT22;38934;52.690;6.184;2022-10-23T11:56:55;14.80;99.90
53053;DHT22;38934;52.690;6.184;2022-10-23T11:59:28;14.80;99.90
53053;DHT22;38934;52.690;6.184;2022-10-23T12:01:55;14.80;99.90
53053;DHT22;38934;52.690;6.184;2022-10-23T12:04:25;14.80;99.90
53053;DHT22;38934;52.690;6.184;2022-10-23T12:06:56;14.80;99.90
53053;DHT22;38934;52.690;6.184;2022-10-23T12:09:36;14.80;99.90
53053;DHT22;38934;52.690;6.184;2022-10-23T12:17:02;14.90;99.90
53053;DHT22;38934;52.690;6.184;2022-10-23T12:19:46;15.50;99.90
53053;DHT22;38934;52.690;6.184;2022-10-23T12:22:11;14.90;99.90
53053;DHT22;38934;52.690;6.184;2022-10-23T12:24:40;14.90;99.90
53053;DHT22;38934;52.690;6.184;2022-10-23T12:27:30;15.10;99.90
53053;DHT22;38934;52.690;6.184;2022-10-23T12:30:02;14.90;99.90
53053;DHT22;38934;52.690;6.184;2022-10-23T12:40:25;15.00;99.90
53053;DHT22;38934;52.690;6.184;2022-10-23T12:42:58;15.00;99.90
53053;DHT22;38934;52.690;6.184;2022-10-23T12:45:29;15.10;99.90
53053;DHT22;38934;52.690;6.184;2022-10-23T12:47:55;15.10;99.90
53053;DHT22;38934;52.690;6.184;2022-10-23T12:50:32;15.50;99.90
53053;DHT22;38934;52.690;6.184;2022-10-23T12:53:03;15.20;99.90
53053;DHT22;38934;52.690;6.184;2022-10-23T12:55:46;15.30;99.90
53053;DHT22;38934;52.690;6.184;2022-10-23T12:58:23;15.40;99.90
53053;DHT22;38934;52.690;6.184;2022-10-23T13:00:49;15.40;99.90
53053;DHT22;38934;52.690;6.184;2022-10-23T13:03:15;15.40;99.90
53053;DHT22;38934;52.690;6.184;2022-10-23T13:05:41;15.90;99.90
53053;DHT22;38934;52.690;6.184;2022-10-23T13:08:07;15.50;99.90
53053;DHT22;38934;52.690;6.184;2022-10-23T13:10:33;15.60;99.90
53053;DHT22;38934;52.690;6.184;2022-10-23T13:13:00;16.60;99.90
53053;DHT22;38934;52.690;6.184;2022-10-23T13:15:35;15.70;99.90
53053;DHT22;38934;52.690;6.184;2022-10-23T13:18:04;15.80;99.90
53053;DHT22;38934;52.690;6.184;2022-10-23T13:20:35;15.70;99.90
53053;DHT22;38934;52.690;6.184;2022-10-23T13:25:39;15.70;99.90
53053;DHT22;38934;52.690;6.184;2022-10-23T13:28:13;15.80;99.90
53053;DHT22;38934;52.690;6.184;2022-10-23T13:30:41;15.70;99.90
53053;DHT22;38934;52.690;6.184;2022-10-23T13:35:59;15.70;99.90
53053;DHT22;38934;52.690;6.184;2022-10-23T13:38:31;15.70;99.90
53053;DHT22;38934;52.690;6.184;2022-10-23T13:40:58;15.70;99.90
53053;DHT22;38934;52.690;6.184;2022-10-23T13:43:24;16.10;99.90
53053;DHT22;38934;52.690;6.184;2022-10-23T13:45:50;15.70;99.90
53053;DHT22;38934;52.690;6.184;2022-10-23T13:48:16;15.70;99.90
53053;DHT22;38934;52.690;6.184;2022-10-23T13:50:42;15.70;99.90
53053;DHT22;38934;52.690;6.184;2022-10-23T13:53:11;15.70;99.90
53053;DHT22;38934;52.690;6.184;2022-10-23T13:55:37;15.70;99.90
53053;DHT22;38934;52.690;6.184;2022-10-23T13:58:07;15.70;99.90
53053;DHT22;38934;52.690;6.184;2022-10-23T14:00:33;15.70;99.90
53053;DHT22;38934;52.690;6.184;2022-10-23T14:02:59;15.70;99.90
53053;DHT22;38934;52.690;6.184;2022-10-23T14:05:25;15.70;99.90
53053;DHT22;38934;52.690;6.184;2022-10-23T14:07:50;15.70;99.90
53053;DHT22;38934;52.690;6.184;2022-10-23T14:10:16;15.70;99.90
53053;DHT22;38934;52.690;6.184;2022-10-23T14:12:42;15.60;99.90
53053;DHT22;38934;52.690;6.184;2022-10-23T14:15:08;15.70;99.90
53053;DHT22;38934;52.690;6.184;2022-10-23T14:17:34;15.70;99.90
53053;DHT22;38934;52.690;6.184;2022-10-23T14:20:00;15.70;99.90
53053;DHT22;38934;52.690;6.184;2022-10-23T14:22:26;15.70;99.90
53053;DHT22;38934;52.690;6.184;2022-10-23T14:24:51;15.80;99.90
53053;DHT22;38934;52.690;6.184;2022-10-23T14:27:17;15.80;99.90
53053;DHT22;38934;52.690;6.184;2022-10-23T14:29:42;15.90;99.90
53053;DHT22;38934;52.690;6.184;2022-10-23T14:32:08;15.80;99.90
53053;DHT22;38934;52.690;6.184;2022-10-23T14:34:34;15.80;99.90
53053;DHT22;38934;52.690;6.184;2022-10-23T14:40:22;15.90;99.90
53053;DHT22;38934;52.690;6.184;2022-10-23T14:42:48;15.90;99.90
53053;DHT22;38934;52.690;6.184;2022-10-23T14:45:13;15.90;99.90
53053;DHT22;38934;52.690;6.184;2022-10-23T14:47:39;15.90;99.90
53053;DHT22;38934;52.690;6.184;2022-10-23T14:50:05;15.90;99.90
53053;DHT22;38934;52.690;6.184;2022-10-23T14:52:30;15.90;99.90
53053;DHT22;38934;52.690;6.184;2022-10-23T14:54:56;16.20;99.90
53053;DHT22;38934;52.690;6.184;2022-10-23T14:57:24;15.90;99.90
53053;DHT22;38934;52.690;6.184;2022-10-23T14:59:50;16.50;99.90
53053;DHT22;38934;52.690;6.184;2022-10-23T15:02:16;15.90;99.90
53053;DHT22;38934;52.690;6.184;2022-10-23T15:04:41;15.90;99.90
53053;DHT22;38934;52.690;6.184;2022-10-23T15:07:07;15.80;99.90
53053;DHT22;38934;52.690;6.184;2022-10-23T15:09:34;15.90;99.90
53053;DHT22;38934;52.690;6.184;2022-10-23T15:12:02;15.90;99.90
53053;DHT22;38934;52.690;6.184;2022-10-23T15:14:28;15.90;99.90
53053;DHT22;38934;52.690;6.184;2022-10-23T15:16:55;15.90;99.90
53053;DHT22;38934;52.690;6.184;2022-10-23T15:19:20;15.90;99.90
53053;DHT22;38934;52.690;6.184;2022-10-23T15:21:46;16.10;99.90
53053;DHT22;38934;52.690;6.184;2022-10-23T15:24:16;15.90;99.90
53053;DHT22;38934;52.690;6.184;2022-10-23T15:26:42;15.90;99.90
53053;DHT22;38934;52.690;6.184;2022-10-23T15:29:10;15.80;99.90
53053;DHT22;38934;52.690;6.184;2022-10-23T15:34:28;15.80;99.90
53053;DHT22;38934;52.690;6.184;2022-10-23T15:36:53;16.30;99.90
53053;DHT22;38934;52.690;6.184;2022-10-23T15:39:21;16.10;99.90
53053;DHT22;38934;52.690;6.184;2022-10-23T15:41:49;15.70;99.90
53053;DHT22;38934;52.690;6.184;2022-10-23T15:44:15;15.70;99.90
53053;DHT22;38934;52.690;6.184;2022-10-23T15:46:41;15.70;99.90
53053;DHT22;38934;52.690;6.184;2022-10-23T15:49:07;15.70;99.90
53053;DHT22;38934;52.690;6.184;2022-10-23T15:51:33;15.60;99.90
53053;DHT22;38934;52.690;6.184;2022-10-23T15:53:58;15.60;99.90
53053;DHT22;38934;52.690;6.184;2022-10-23T15:56:24;15.60;99.90
53053;DHT22;38934;52.690;6.184;2022-10-23T15:58:49;15.60;99.90
53053;DHT22;38934;52.690;6.184;2022-10-23T16:01:15;15.50;99.90
53053;DHT22;38934;52.690;6.184;2022-10-23T16:03:40;16.30;99.90
53053;DHT22;38934;52.690;6.184;2022-10-23T16:06:09;15.60;99.90
53053;DHT22;38934;52.690;6.184;2022-10-23T16:08:35;15.40;99.90
53053;DHT22;38934;52.690;6.184;2022-10-23T16:11:03;15.40;99.90
53053;DHT22;38934;52.690;6.184;2022-10-23T16:13:28;15.30;99.90
53053;DHT22;38934;52.690;6.184;2022-10-23T16:15:54;15.30;99.90
53053;DHT22;38934;52.690;6.184;2022-10-23T16:18:22;15.30;99.90
53053;DHT22;38934;52.690;6.184;2022-10-23T16:20:48;15.40;99.90
53053;DHT22;38934;52.690;6.184;2022-10-23T16:23:15;15.30;99.90
53053;DHT22;38934;52.690;6.184;2022-10-23T16:25:51;15.30;99.90
53053;DHT22;38934;52.690;6.184;2022-10-23T16:28:16;15.30;99.90
53053;DHT22;38934;52.690;6.184;2022-10-23T16:30:42;15.80;99.90
53053;DHT22;38934;52.690;6.184;2022-10-23T16:33:08;15.20;99.90
53053;DHT22;38934;52.690;6.184;2022-10-23T16:35:37;15.80;99.90
53053;DHT22;38934;52.690;6.184;2022-10-23T16:38:03;15.40;99.90
53053;DHT22;38934;52.690;6.184;2022-10-23T16:40:28;15.20;99.90
53053;DHT22;38934;52.690;6.184;2022-10-23T16:42:55;15.10;99.90
53053;DHT22;38934;52.690;6.184;2022-10-23T16:45:20;15.10;99.90
53053;DHT22;38934;52.690;6.184;2022-10-23T16:47:46;15.60;99.90
53053;DHT22;38934;52.690;6.184;2022-10-23T16:50:11;15.10;99.90
53053;DHT22;38934;52.690;6.184;2022-10-23T16:52:37;15.20;99.90
53053;DHT22;38934;52.690;6.184;2022-10-23T16:55:03;15.20;99.90
53053;DHT22;38934;52.690;6.184;2022-10-23T16:57:28;15.10;99.90
53053;DHT22;38934;52.690;6.184;2022-10-23T16:59:54;15.60;99.90
53053;DHT22;38934;52.690;6.184;2022-10-23T17:02:19;15.20;99.90
53053;DHT22;38934;52.690;6.184;2022-10-23T17:04:45;15.70;99.90
53053;DHT22;38934;52.690;6.184;2022-10-23T17:07:11;15.20;99.90
53053;DHT22;38934;52.690;6.184;2022-10-23T17:09:39;15.20;99.90
53053;DHT22;38934;52.690;6.184;2022-10-23T17:12:05;15.80;99.90
53053;DHT22;38934;52.690;6.184;2022-10-23T17:14:33;15.30;99.90
53053;DHT22;38934;52.690;6.184;2022-10-23T17:17:00;15.20;99.90
53053;DHT22;38934;52.690;6.184;2022-10-23T17:19:26;16.00;99.90
53053;DHT22;38934;52.690;6.184;2022-10-23T17:21:52;16.00;99.90
53053;DHT22;38934;52.690;6.184;2022-10-23T17:24:20;15.20;99.90
53053;DHT22;38934;52.690;6.184;2022-10-23T17:26:45;15.30;99.90
53053;DHT22;38934;52.690;6.184;2022-10-23T17:29:14;15.20;99.90
53053;DHT22;38934;52.690;6.184;2022-10-23T17:31:41;16.10;99.90
53053;DHT22;38934;52.690;6.184;2022-10-23T17:34:08;15.30;99.90